createdAt,value
2022-07-29T00:00:14.423Z,99808.67
2022-07-29T00:01:19.111Z,99810.98
2022-07-29T00:02:22.569Z,99810.33
2022-07-29T00:03:25.271Z,99810.33
2022-07-29T00:04:28.020Z,99809.32
2022-07-29T00:05:30.597Z,99820.19
2022-07-29T00:06:33.621Z,99815.05
2022-07-29T00:07:36.612Z,99815.67
2022-07-29T00:08:39.257Z,99820.02
2022-07-29T00:09:50.389Z,99811.99
2022-07-29T00:10:46.385Z,99816.33
2022-07-29T00:11:49.011Z,99817.34
2022-07-29T00:12:51.714Z,99814.66
2022-07-29T00:13:55.062Z,99809.32
2022-07-29T00:14:57.631Z,99815.05
2022-07-29T00:16:04.764Z,99811.73
2022-07-29T00:17:04.814Z,99809.06
2022-07-29T00:18:07.383Z,99812.13
2022-07-29T00:19:10.048Z,99814.17
2022-07-29T00:20:14.764Z,99811.50
2022-07-29T00:21:18.356Z,99820.71
2022-07-29T00:22:21.541Z,99819.27
2022-07-29T00:23:24.519Z,99815.58
2022-07-29T00:24:27.185Z,99816.38
2022-07-29T00:25:29.745Z,99814.92
2022-07-29T00:26:34.122Z,99816.98
2022-07-29T00:27:36.725Z,99815.14
2022-07-29T00:28:39.380Z,99813.48
2022-07-29T00:29:41.912Z,99816.54
2022-07-29T00:30:45.098Z,99822.89
2022-07-29T00:31:47.782Z,99813.03
2022-07-29T00:32:50.795Z,99816.89
2022-07-29T00:33:53.452Z,99816.09
2022-07-29T00:34:56.025Z,99815.70
2022-07-29T00:35:58.589Z,99819.39
2022-07-29T00:37:01.465Z,99814.61
2022-07-29T00:38:04.048Z,99816.84
2022-07-29T00:39:06.596Z,99809.00
2022-07-29T00:40:10.083Z,99818.68
2022-07-29T00:41:13.077Z,99818.06
2022-07-29T00:42:15.729Z,99819.07
2022-07-29T00:43:18.296Z,99819.07
2022-07-29T00:44:20.882Z,99809.96
2022-07-29T00:45:23.538Z,99812.84
2022-07-29T00:46:27.971Z,99817.80
2022-07-29T00:47:30.852Z,99816.96
2022-07-29T00:48:33.489Z,99810.17
2022-07-29T00:49:36.262Z,99811.39
2022-07-29T00:50:39.239Z,99815.06
2022-07-29T00:51:41.873Z,99809.52
2022-07-29T00:52:44.470Z,99808.72
2022-07-29T00:53:47.143Z,99818.13
2022-07-29T00:54:49.707Z,99806.78
2022-07-29T00:55:52.488Z,99813.52
2022-07-29T00:56:55.562Z,99810.02
2022-07-29T00:57:58.223Z,99811.86
2022-07-29T00:59:00.802Z,99810.23
2022-07-29T01:00:03.565Z,99810.61
2022-07-29T01:01:06.783Z,99815.75
2022-07-29T01:02:09.992Z,99819.63
2022-07-29T01:03:12.804Z,99813.64
2022-07-29T01:04:15.866Z,99814.67
2022-07-29T01:05:20.005Z,99814.67
2022-07-29T01:06:24.186Z,99821.02
2022-07-29T01:07:26.831Z,99809.34
2022-07-29T01:08:29.427Z,99814.86
2022-07-29T01:09:40.875Z,99818.35
2022-07-29T01:10:36.604Z,99816.69
2022-07-29T01:11:39.400Z,99812.18
2022-07-29T01:12:42.112Z,99818.35
2022-07-29T01:13:44.713Z,99828.38
2022-07-29T01:14:47.283Z,99823.42
2022-07-29T01:15:50.010Z,99819.30
2022-07-29T01:16:53.468Z,99825.64
2022-07-29T01:17:56.117Z,99822.80
2022-07-29T01:18:58.739Z,99827.30
2022-07-29T01:20:01.348Z,99823.98
2022-07-29T01:21:03.911Z,99819.85
2022-07-29T01:22:06.478Z,99824.36
2022-07-29T01:23:09.147Z,99817.19
2022-07-29T01:24:12.090Z,99820.86
2022-07-29T01:25:14.692Z,99816.88
2022-07-29T01:26:20.442Z,99812.38
2022-07-29T01:27:22.487Z,99819.38
2022-07-29T01:28:25.462Z,99817.27
2022-07-29T01:29:31.014Z,99809.46
2022-07-29T01:30:34.428Z,99818.47
2022-07-29T01:31:42.569Z,99822.98
2022-07-29T01:32:41.466Z,99819.69
2022-07-29T01:33:44.133Z,99821.70
2022-07-29T01:34:46.704Z,99826.20
2022-07-29T01:35:51.214Z,99822.70
2022-07-29T01:36:53.887Z,99824.54
2022-07-29T01:37:56.592Z,99824.74
2022-07-29T01:38:59.204Z,99819.41
2022-07-29T01:40:01.791Z,99829.42
2022-07-29T01:41:04.456Z,99833.58
2022-07-29T01:42:07.227Z,99828.42
2022-07-29T01:43:09.796Z,99833.30
2022-07-29T01:44:12.456Z,99828.14
2022-07-29T01:45:15.544Z,99831.19
2022-07-29T01:46:18.571Z,99827.34
2022-07-29T01:47:21.461Z,99831.84
2022-07-29T01:48:24.033Z,99826.05
2022-07-29T01:49:26.643Z,99829.73
2022-07-29T01:50:31.247Z,99827.69
2022-07-29T01:51:33.813Z,99831.02
2022-07-29T01:52:36.481Z,99827.89
2022-07-29T01:53:39.182Z,99829.52
2022-07-29T01:54:41.777Z,99833.02
2022-07-29T01:55:44.387Z,99830.36
2022-07-29T01:56:47.368Z,99825.47
2022-07-29T01:57:49.930Z,99831.84
2022-07-29T01:58:52.455Z,99827.69
2022-07-29T01:59:55.637Z,99824.56
2022-07-29T02:00:58.346Z,99827.23
2022-07-29T02:02:00.957Z,99836.27
2022-07-29T02:03:03.686Z,99835.62
2022-07-29T02:04:06.315Z,99831.28
2022-07-29T02:05:08.948Z,99836.27
2022-07-29T02:06:12.306Z,99826.23
2022-07-29T02:07:14.891Z,99828.06
2022-07-29T02:08:17.455Z,99832.77
2022-07-29T02:09:20.013Z,99830.28
2022-07-29T02:10:25.847Z,99826.61
2022-07-29T02:11:28.621Z,99824.19
2022-07-29T02:12:31.149Z,99827.34
2022-07-29T02:13:33.757Z,99821.17
2022-07-29T02:14:36.424Z,99832.47
2022-07-29T02:15:39.160Z,99830.08
2022-07-29T02:16:42.378Z,99822.05
2022-07-29T02:17:44.968Z,99826.81
2022-07-29T02:18:47.614Z,99826.37
2022-07-29T02:19:50.284Z,99827.14
2022-07-29T02:20:53.364Z,99826.89
2022-07-29T02:21:56.259Z,99826.41
2022-07-29T02:22:58.908Z,99830.07
2022-07-29T02:24:01.942Z,99819.23
2022-07-29T02:25:04.558Z,99831.20
2022-07-29T02:26:07.637Z,99820.57
2022-07-29T02:27:10.408Z,99824.63
2022-07-29T02:28:13.027Z,99826.61
2022-07-29T02:29:15.598Z,99828.82
2022-07-29T02:30:19.945Z,99827.84
2022-07-29T02:31:22.580Z,99828.72
2022-07-29T02:32:25.490Z,99828.95
2022-07-29T02:33:28.771Z,99832.27
2022-07-29T02:34:31.348Z,99836.44
2022-07-29T02:35:34.546Z,99835.41
2022-07-29T02:36:37.941Z,99835.80
2022-07-29T02:37:40.585Z,99836.56
2022-07-29T02:38:43.245Z,99836.74
2022-07-29T02:39:45.935Z,99839.16
2022-07-29T02:40:49.000Z,99833.47
2022-07-29T02:41:52.485Z,99843.30
2022-07-29T02:42:55.151Z,99839.25
2022-07-29T02:43:57.717Z,99843.67
2022-07-29T02:45:00.285Z,99848.91
2022-07-29T02:46:03.015Z,99833.45
2022-07-29T02:47:06.036Z,99843.21
2022-07-29T02:48:08.662Z,99846.95
2022-07-29T02:49:11.332Z,99840.25
2022-07-29T02:50:15.130Z,99844.97
2022-07-29T02:51:41.380Z,99854.00
2022-07-29T02:52:22.348Z,99840.23
2022-07-29T02:53:24.924Z,99845.15
2022-07-29T02:54:27.484Z,99844.69
2022-07-29T02:55:30.151Z,99847.38
2022-07-29T02:56:33.640Z,99846.09
2022-07-29T02:57:36.270Z,99844.59
2022-07-29T02:58:40.821Z,99851.95
2022-07-29T02:59:43.491Z,99846.09
2022-07-29T03:00:46.474Z,99851.27
2022-07-29T03:01:49.248Z,99850.36
2022-07-29T03:02:51.908Z,99854.09
2022-07-29T03:03:54.455Z,99864.19
2022-07-29T03:04:57.081Z,99854.99
2022-07-29T03:06:01.050Z,99854.83
2022-07-29T03:07:03.712Z,99851.60
2022-07-29T03:08:06.491Z,99857.73
2022-07-29T03:09:13.009Z,99863.84
2022-07-29T03:10:14.070Z,99855.64
2022-07-29T03:11:16.645Z,99860.19
2022-07-29T03:12:19.175Z,99857.98
2022-07-29T03:13:21.845Z,99861.41
2022-07-29T03:14:24.448Z,99858.95
2022-07-29T03:15:27.018Z,99861.00
2022-07-29T03:16:30.548Z,99864.54
2022-07-29T03:17:33.175Z,99864.80
2022-07-29T03:18:35.840Z,99856.99
2022-07-29T03:19:38.512Z,99862.42
2022-07-29T03:20:42.101Z,99865.06
2022-07-29T03:21:44.770Z,99866.13
2022-07-29T03:22:47.405Z,99866.77
2022-07-29T03:23:50.721Z,99862.81
2022-07-29T03:24:53.288Z,99864.47
2022-07-29T03:25:56.007Z,99861.98
2022-07-29T03:27:00.076Z,99863.06
2022-07-29T03:28:02.742Z,99858.52
2022-07-29T03:29:05.781Z,99864.08
2022-07-29T03:30:09.019Z,99856.66
2022-07-29T03:31:11.885Z,99861.57
2022-07-29T03:32:15.453Z,99863.25
2022-07-29T03:33:19.823Z,99867.66
2022-07-29T03:34:23.558Z,99867.92
2022-07-29T03:35:26.532Z,99865.31
2022-07-29T03:36:30.944Z,99866.38
2022-07-29T03:37:33.616Z,99868.67
2022-07-29T03:38:36.180Z,99871.20
2022-07-29T03:39:39.217Z,99873.94
2022-07-29T03:40:42.033Z,99871.91
2022-07-29T03:41:44.660Z,99868.17
2022-07-29T03:42:47.682Z,99865.72
2022-07-29T03:43:50.930Z,99866.11
2022-07-29T03:44:53.528Z,99870.28
2022-07-29T03:45:56.263Z,99865.30
2022-07-29T03:46:59.289Z,99866.34
2022-07-29T03:48:01.952Z,99864.69
2022-07-29T03:49:04.733Z,99851.70
2022-07-29T03:50:08.161Z,99866.55
2022-07-29T03:51:12.717Z,99865.52
2022-07-29T03:52:15.298Z,99868.20
2022-07-29T03:53:17.912Z,99864.08
2022-07-29T03:54:21.271Z,99863.88
2022-07-29T03:55:24.319Z,99867.18
2022-07-29T03:56:28.932Z,99868.61
2022-07-29T03:57:31.503Z,99866.97
2022-07-29T03:58:34.169Z,99863.04
2022-07-29T03:59:36.732Z,99873.58
2022-07-29T04:00:40.425Z,99864.48
2022-07-29T04:01:43.127Z,99867.76
2022-07-29T04:02:45.768Z,99865.70
2022-07-29T04:03:48.379Z,99856.61
2022-07-29T04:04:51.148Z,99874.58
2022-07-29T04:05:53.777Z,99871.91
2022-07-29T04:06:57.060Z,99870.65
2022-07-29T04:07:59.725Z,99873.11
2022-07-29T04:09:02.250Z,99878.25
2022-07-29T04:10:05.065Z,99868.54
2022-07-29T04:11:08.073Z,99874.70
2022-07-29T04:12:10.708Z,99866.02
2022-07-29T04:13:13.238Z,99874.05
2022-07-29T04:14:16.179Z,99871.13
2022-07-29T04:15:18.946Z,99867.57
2022-07-29T04:16:22.625Z,99878.32
2022-07-29T04:17:25.385Z,99873.38
2022-07-29T04:18:27.955Z,99870.45
2022-07-29T04:19:30.724Z,99876.02
2022-07-29T04:20:34.112Z,99873.49
2022-07-29T04:21:36.847Z,99879.28
2022-07-29T04:22:39.557Z,99876.95
2022-07-29T04:23:47.967Z,99880.00
2022-07-29T04:24:46.732Z,99870.62
2022-07-29T04:25:49.258Z,99882.98
2022-07-29T04:26:52.073Z,99874.27
2022-07-29T04:27:55.010Z,99883.99
2022-07-29T04:28:57.619Z,99882.22
2022-07-29T04:30:00.295Z,99880.06
2022-07-29T04:31:03.009Z,99881.28
2022-07-29T04:32:05.730Z,99875.86
2022-07-29T04:33:08.397Z,99877.00
2022-07-29T04:34:10.920Z,99871.41
2022-07-29T04:35:13.551Z,99873.69
2022-07-29T04:36:28.386Z,99875.20
2022-07-29T04:37:22.460Z,99874.14
2022-07-29T04:38:25.022Z,99875.52
2022-07-29T04:39:29.594Z,99878.21
2022-07-29T04:40:33.388Z,99882.98
2022-07-29T04:41:36.821Z,99885.63
2022-07-29T04:42:43.949Z,99884.45
2022-07-29T04:43:44.630Z,99889.47
2022-07-29T04:44:48.512Z,99888.36
2022-07-29T04:45:53.054Z,99891.98
2022-07-29T04:46:56.520Z,99887.27
2022-07-29T04:47:59.200Z,99890.94
2022-07-29T04:49:01.844Z,99883.89
2022-07-29T04:50:04.934Z,99886.37
2022-07-29T04:51:07.601Z,99881.48
2022-07-29T04:52:10.276Z,99878.41
2022-07-29T04:53:13.041Z,99889.31
2022-07-29T04:54:15.842Z,99882.66
2022-07-29T04:55:18.892Z,99878.47
2022-07-29T04:56:22.793Z,99881.74
2022-07-29T04:57:25.415Z,99886.98
2022-07-29T04:58:28.029Z,99885.48
2022-07-29T04:59:30.654Z,99885.84
2022-07-29T05:00:33.885Z,99886.61
2022-07-29T05:01:37.028Z,99890.64
2022-07-29T05:02:39.797Z,99895.71
2022-07-29T05:03:42.819Z,99883.77
2022-07-29T05:04:45.681Z,99883.19
2022-07-29T05:05:48.360Z,99880.63
2022-07-29T05:06:51.327Z,99883.00
2022-07-29T05:07:53.955Z,99880.79
2022-07-29T05:08:56.672Z,99888.55
2022-07-29T05:09:59.414Z,99888.43
2022-07-29T05:11:11.663Z,99892.53
2022-07-29T05:12:06.719Z,99884.81
2022-07-29T05:13:09.350Z,99887.17
2022-07-29T05:14:11.972Z,99894.92
2022-07-29T05:15:14.626Z,99896.67
2022-07-29T05:16:18.433Z,99888.13
2022-07-29T05:17:21.092Z,99889.30
2022-07-29T05:18:25.883Z,99885.87
2022-07-29T05:19:28.270Z,99885.42
2022-07-29T05:20:31.862Z,99880.72
2022-07-29T05:21:34.840Z,99883.28
2022-07-29T05:22:38.124Z,99883.27
2022-07-29T05:23:40.783Z,99891.02
2022-07-29T05:24:43.351Z,99880.89
2022-07-29T05:25:45.935Z,99887.47
2022-07-29T05:26:48.864Z,99888.98
2022-07-29T05:27:51.461Z,99883.34
2022-07-29T05:28:54.029Z,99886.28
2022-07-29T05:29:56.699Z,99890.43
2022-07-29T05:30:59.752Z,99883.59
2022-07-29T05:32:02.447Z,99887.98
2022-07-29T05:33:05.013Z,99896.07
2022-07-29T05:34:07.582Z,99885.45
2022-07-29T05:35:10.150Z,99882.97
2022-07-29T05:36:14.046Z,99881.36
2022-07-29T05:37:16.620Z,99893.79
2022-07-29T05:38:19.280Z,99889.32
2022-07-29T05:39:22.013Z,99881.05
2022-07-29T05:40:25.650Z,99889.13
2022-07-29T05:41:28.311Z,99883.00
2022-07-29T05:42:30.943Z,99883.78
2022-07-29T05:43:33.691Z,99880.58
2022-07-29T05:44:36.282Z,99889.73
2022-07-29T05:45:49.971Z,99883.03
2022-07-29T05:46:43.748Z,99887.29
2022-07-29T05:47:46.400Z,99883.78
2022-07-29T05:48:49.098Z,99888.14
2022-07-29T05:49:51.826Z,99885.02
2022-07-29T05:50:54.693Z,99886.40
2022-07-29T05:51:57.363Z,99896.08
2022-07-29T05:53:00.027Z,99888.97
2022-07-29T05:54:04.543Z,99889.63
2022-07-29T05:55:07.211Z,99886.51
2022-07-29T05:56:10.904Z,99891.67
2022-07-29T05:57:13.880Z,99889.63
2022-07-29T05:58:16.450Z,99897.34
2022-07-29T05:59:19.014Z,99887.41
2022-07-29T06:00:22.531Z,99877.31
2022-07-29T06:01:25.864Z,99890.09
2022-07-29T06:02:28.766Z,99892.21
2022-07-29T06:03:31.742Z,99889.04
2022-07-29T06:04:34.470Z,99897.39
2022-07-29T06:05:37.435Z,99887.81
2022-07-29T06:06:40.267Z,99892.56
2022-07-29T06:07:50.218Z,99889.63
2022-07-29T06:08:47.403Z,99892.16
2022-07-29T06:09:50.015Z,99887.84
2022-07-29T06:10:53.190Z,99891.88
2022-07-29T06:11:55.767Z,99884.45
2022-07-29T06:12:58.741Z,99879.95
2022-07-29T06:14:01.404Z,99876.48
2022-07-29T06:15:04.111Z,99876.44
2022-07-29T06:16:06.945Z,99883.55
2022-07-29T06:17:09.825Z,99879.77
2022-07-29T06:18:12.492Z,99878.87
2022-07-29T06:19:15.060Z,99876.23
2022-07-29T06:20:19.063Z,99881.72
2022-07-29T06:21:23.771Z,99879.01
2022-07-29T06:22:26.808Z,99871.79
2022-07-29T06:23:29.425Z,99878.72
2022-07-29T06:24:32.127Z,99878.49
2022-07-29T06:25:34.769Z,99878.49
2022-07-29T06:26:39.655Z,99881.04
2022-07-29T06:27:42.370Z,99872.67
2022-07-29T06:28:45.027Z,99870.72
2022-07-29T06:29:47.584Z,99871.75
2022-07-29T06:30:50.425Z,99869.96
2022-07-29T06:31:53.339Z,99876.64
2022-07-29T06:32:55.909Z,99876.86
2022-07-29T06:33:58.466Z,99870.66
2022-07-29T06:35:31.946Z,99878.97
2022-07-29T06:36:05.606Z,99869.78
2022-07-29T06:37:08.226Z,99869.09
2022-07-29T06:38:31.593Z,99872.73
2022-07-29T06:39:17.356Z,99878.67
2022-07-29T06:40:21.403Z,99880.11
2022-07-29T06:41:24.733Z,99869.98
2022-07-29T06:42:27.416Z,99885.06
2022-07-29T06:43:30.374Z,99871.84
2022-07-29T06:44:32.896Z,99879.21
2022-07-29T06:45:35.429Z,99882.63
2022-07-29T06:46:38.686Z,99881.30
2022-07-29T06:47:41.358Z,99875.94
2022-07-29T06:48:43.968Z,99876.68
2022-07-29T06:49:46.595Z,99878.89
2022-07-29T06:50:49.683Z,99878.29
2022-07-29T06:51:52.368Z,99874.84
2022-07-29T06:52:55.318Z,99879.84
2022-07-29T06:54:00.217Z,99882.00
2022-07-29T06:55:02.299Z,99873.14
2022-07-29T06:56:05.108Z,99876.44
2022-07-29T06:57:07.842Z,99872.65
2022-07-29T06:58:10.507Z,99874.06
2022-07-29T06:59:13.291Z,99868.19
2022-07-29T07:00:16.459Z,99867.67
2022-07-29T07:01:19.489Z,99869.53
2022-07-29T07:02:22.491Z,99870.63
2022-07-29T07:03:25.394Z,99868.84
2022-07-29T07:04:28.059Z,99862.08
2022-07-29T07:05:30.623Z,99863.06
2022-07-29T07:06:33.396Z,99871.08
2022-07-29T07:07:35.964Z,99866.84
2022-07-29T07:08:38.736Z,99859.83
2022-07-29T07:09:41.263Z,99859.84
2022-07-29T07:10:44.072Z,99861.78
2022-07-29T07:11:46.681Z,99864.46
2022-07-29T07:12:51.172Z,99865.13
2022-07-29T07:13:53.739Z,99864.18
2022-07-29T07:14:56.332Z,99865.48
2022-07-29T07:15:58.853Z,99862.38
2022-07-29T07:17:01.971Z,99866.31
2022-07-29T07:18:04.653Z,99857.91
2022-07-29T07:19:07.384Z,99864.08
2022-07-29T07:20:10.451Z,99861.84
2022-07-29T07:21:19.277Z,99864.81
2022-07-29T07:22:18.356Z,99867.86
2022-07-29T07:23:22.759Z,99867.50
2022-07-29T07:24:25.532Z,99881.96
2022-07-29T07:25:28.204Z,99871.92
2022-07-29T07:26:31.486Z,99869.46
2022-07-29T07:27:34.051Z,99870.31
2022-07-29T07:28:36.842Z,99868.44
2022-07-29T07:29:39.394Z,99877.47
2022-07-29T07:30:42.167Z,99878.03
2022-07-29T07:31:44.918Z,99877.76
2022-07-29T07:32:47.810Z,99879.66
2022-07-29T07:33:50.438Z,99874.52
2022-07-29T07:34:53.044Z,99868.53
2022-07-29T07:35:55.716Z,99873.96
2022-07-29T07:36:58.860Z,99873.20
2022-07-29T07:38:01.421Z,99872.97
2022-07-29T07:39:04.203Z,99889.86
2022-07-29T07:40:07.942Z,99882.22
2022-07-29T07:41:10.501Z,99886.01
2022-07-29T07:42:13.368Z,99888.45
2022-07-29T07:43:16.445Z,99886.52
2022-07-29T07:44:19.253Z,99891.42
2022-07-29T07:45:22.301Z,99887.06
2022-07-29T07:46:26.881Z,99890.61
2022-07-29T07:47:29.787Z,99886.95
2022-07-29T07:48:32.354Z,99886.07
2022-07-29T07:49:34.893Z,99888.10
2022-07-29T07:50:37.819Z,99885.22
2022-07-29T07:51:40.773Z,99886.95
2022-07-29T07:52:43.441Z,99883.52
2022-07-29T07:53:46.113Z,99885.42
2022-07-29T07:54:49.090Z,99877.28
2022-07-29T07:56:56.677Z,99881.34
2022-07-29T07:57:59.244Z,99889.77
2022-07-29T07:59:01.929Z,99885.91
2022-07-29T08:00:04.990Z,99889.47
2022-07-29T08:01:07.883Z,99887.04
2022-07-29T08:02:11.101Z,99876.45
2022-07-29T08:03:17.137Z,99882.77
2022-07-29T08:04:22.190Z,99882.23
2022-07-29T08:05:23.114Z,99882.77
2022-07-29T08:06:26.749Z,99873.98
2022-07-29T08:07:29.314Z,99886.80
2022-07-29T08:08:32.128Z,99883.78
2022-07-29T08:09:34.753Z,99881.30
2022-07-29T08:10:37.427Z,99877.50
2022-07-29T08:11:40.189Z,99875.90
2022-07-29T08:12:44.699Z,99893.65
2022-07-29T08:13:47.269Z,99879.78
2022-07-29T08:14:49.854Z,99878.94
2022-07-29T08:15:52.363Z,99877.86
2022-07-29T08:16:55.325Z,99880.88
2022-07-29T08:17:58.277Z,99881.41
2022-07-29T08:19:00.833Z,99886.84
2022-07-29T08:20:03.593Z,99877.88
2022-07-29T08:21:06.080Z,99869.11
2022-07-29T08:22:08.829Z,99877.59
2022-07-29T08:23:11.863Z,99867.24
2022-07-29T08:24:14.887Z,99869.66
2022-07-29T08:25:17.558Z,99872.60
2022-07-29T08:26:20.836Z,99878.58
2022-07-29T08:27:42.375Z,99881.02
2022-07-29T08:28:28.016Z,99874.48
2022-07-29T08:29:30.584Z,99869.36
2022-07-29T08:30:34.951Z,99881.69
2022-07-29T08:31:37.607Z,99880.05
2022-07-29T08:32:56.181Z,99884.13
2022-07-29T08:33:44.847Z,99887.34
2022-07-29T08:34:47.678Z,99882.72
2022-07-29T08:35:50.293Z,99879.96
2022-07-29T08:36:53.367Z,99885.92
2022-07-29T08:37:56.037Z,99885.66
2022-07-29T08:38:58.625Z,99873.45
2022-07-29T08:40:01.273Z,99880.25
2022-07-29T08:41:03.942Z,99869.09
2022-07-29T08:42:06.669Z,99884.64
2022-07-29T08:43:09.329Z,99889.04
2022-07-29T08:44:12.053Z,99881.68
2022-07-29T08:45:14.649Z,99889.05
2022-07-29T08:46:19.112Z,99885.52
2022-07-29T08:47:21.759Z,99890.41
2022-07-29T08:48:24.674Z,99891.50
2022-07-29T08:49:27.401Z,99881.41
2022-07-29T08:50:31.033Z,99880.30
2022-07-29T08:51:33.599Z,99883.29
2022-07-29T08:52:38.025Z,99883.03
2022-07-29T08:53:40.724Z,99881.66
2022-07-29T08:54:43.353Z,99889.83
2022-07-29T08:55:46.024Z,99876.23
2022-07-29T08:56:48.688Z,99883.85
2022-07-29T08:57:54.474Z,99870.22
2022-07-29T08:58:55.769Z,99872.95
2022-07-29T08:59:58.540Z,99876.72
2022-07-29T09:01:02.887Z,99873.38
2022-07-29T09:02:05.755Z,99870.30
2022-07-29T09:03:11.994Z,99869.70
2022-07-29T09:04:14.749Z,99866.40
2022-07-29T09:05:17.417Z,99869.95
2022-07-29T09:06:21.928Z,99858.52
2022-07-29T09:07:24.600Z,99870.55
2022-07-29T09:08:29.109Z,99870.05
2022-07-29T09:09:31.788Z,99869.53
2022-07-29T09:10:34.857Z,99876.63
2022-07-29T09:11:37.449Z,99870.09
2022-07-29T09:12:40.096Z,99867.07
2022-07-29T09:13:42.726Z,99861.91
2022-07-29T09:14:45.329Z,99863.51
2022-07-29T09:15:47.896Z,99865.83
2022-07-29T09:16:53.458Z,99855.66
2022-07-29T09:17:55.489Z,99867.41
2022-07-29T09:18:58.270Z,99862.78
2022-07-29T09:20:00.932Z,99867.13
2022-07-29T09:21:03.495Z,99862.71
2022-07-29T09:22:06.538Z,99861.19
2022-07-29T09:23:09.551Z,99853.92
2022-07-29T09:24:12.124Z,99865.06
2022-07-29T09:25:14.991Z,99869.22
2022-07-29T09:26:18.753Z,99864.16
2022-07-29T09:27:21.392Z,99866.19
2022-07-29T09:28:23.921Z,99860.59
2022-07-29T09:29:26.653Z,99862.09
2022-07-29T09:30:31.867Z,99863.28
2022-07-29T09:31:34.937Z,99864.77
2022-07-29T09:32:37.881Z,99866.88
2022-07-29T09:33:40.545Z,99856.45
2022-07-29T09:34:43.213Z,99860.28
2022-07-29T09:35:56.568Z,99861.32
2022-07-29T09:36:50.560Z,99869.30
2022-07-29T09:37:53.173Z,99870.12
2022-07-29T09:38:55.836Z,99863.09
2022-07-29T09:39:58.464Z,99865.05
2022-07-29T09:41:06.125Z,99852.08
2022-07-29T09:42:05.900Z,99860.35
2022-07-29T09:43:08.522Z,99860.73
2022-07-29T09:44:11.229Z,99860.34
2022-07-29T09:45:13.757Z,99859.82
2022-07-29T09:46:17.868Z,99858.70
2022-07-29T09:47:20.776Z,99855.56
2022-07-29T09:48:23.343Z,99863.19
2022-07-29T09:49:26.114Z,99854.98
2022-07-29T09:50:29.249Z,99853.41
2022-07-29T09:51:37.845Z,99859.96
2022-07-29T09:52:36.373Z,99857.55
2022-07-29T09:53:39.349Z,99852.98
2022-07-29T09:54:41.978Z,99854.53
2022-07-29T09:55:44.587Z,99854.16
2022-07-29T09:56:47.831Z,99856.55
2022-07-29T09:57:50.435Z,99855.36
2022-07-29T09:58:53.104Z,99855.80
2022-07-29T09:59:55.673Z,99847.46
2022-07-29T10:00:58.665Z,99854.66
2022-07-29T10:02:01.866Z,99844.69
2022-07-29T10:03:06.059Z,99851.52
2022-07-29T10:04:09.033Z,99848.87
2022-07-29T10:05:11.711Z,99854.93
2022-07-29T10:06:16.191Z,99853.64
2022-07-29T10:07:18.758Z,99852.78
2022-07-29T10:08:21.325Z,99848.79
2022-07-29T10:09:23.892Z,99855.22
2022-07-29T10:10:27.280Z,99856.73
2022-07-29T10:11:37.830Z,99855.63
2022-07-29T10:12:34.365Z,99852.44
2022-07-29T10:13:37.130Z,99853.22
2022-07-29T10:14:39.757Z,99850.20
2022-07-29T10:15:42.367Z,99858.41
2022-07-29T10:16:45.405Z,99856.50
2022-07-29T10:17:48.320Z,99855.63
2022-07-29T10:18:50.889Z,99854.45
2022-07-29T10:19:55.501Z,99858.00
2022-07-29T10:20:59.399Z,99863.76
2022-07-29T10:22:02.324Z,99861.02
2022-07-29T10:23:06.811Z,99860.46
2022-07-29T10:24:14.871Z,99863.48
2022-07-29T10:26:24.012Z,99850.53
2022-07-29T10:27:26.580Z,99857.59
2022-07-29T10:28:29.144Z,99851.30
2022-07-29T10:29:31.713Z,99847.52
2022-07-29T10:30:35.055Z,99845.91
2022-07-29T10:31:37.683Z,99842.50
2022-07-29T10:32:40.741Z,99844.69
2022-07-29T10:33:43.309Z,99850.39
2022-07-29T10:34:46.084Z,99849.42
2022-07-29T10:35:48.605Z,99840.86
2022-07-29T10:36:51.423Z,99851.52
2022-07-29T10:37:54.088Z,99848.79
2022-07-29T10:38:57.993Z,99844.05
2022-07-29T10:40:00.965Z,99844.14
2022-07-29T10:41:03.530Z,99844.83
2022-07-29T10:42:08.041Z,99841.53
2022-07-29T10:43:12.051Z,99849.37
2022-07-29T10:44:17.364Z,99851.23
2022-07-29T10:45:21.237Z,99842.69
2022-07-29T10:46:25.545Z,99841.37
2022-07-29T10:47:28.567Z,99845.66
2022-07-29T10:48:31.225Z,99849.37
2022-07-29T10:49:34.237Z,99850.41
2022-07-29T10:50:38.816Z,99854.69
2022-07-29T10:51:41.385Z,99848.33
2022-07-29T10:52:44.677Z,99854.41
2022-07-29T10:53:47.297Z,99854.25
2022-07-29T10:54:50.624Z,99849.22
2022-07-29T10:55:53.187Z,99858.25
2022-07-29T10:56:56.883Z,99854.48
2022-07-29T10:57:59.553Z,99844.85
2022-07-29T10:59:02.693Z,99849.73
2022-07-29T11:00:05.809Z,99844.73
2022-07-29T11:01:08.789Z,99850.63
2022-07-29T11:02:36.464Z,99841.91
2022-07-29T11:03:17.250Z,99843.41
2022-07-29T11:04:20.181Z,99846.31
2022-07-29T11:05:24.687Z,99843.00
2022-07-29T11:06:29.509Z,99845.60
2022-07-29T11:07:45.648Z,99851.75
2022-07-29T11:08:36.690Z,99852.48
2022-07-29T11:09:39.669Z,99853.97
2022-07-29T11:10:42.949Z,99849.37
2022-07-29T11:11:51.497Z,99851.08
2022-07-29T11:12:51.973Z,99845.06
2022-07-29T11:13:54.556Z,99847.52
2022-07-29T11:14:57.315Z,99844.59
2022-07-29T11:16:00.909Z,99844.44
2022-07-29T11:17:06.505Z,99843.11
2022-07-29T11:18:08.396Z,99843.00
2022-07-29T11:19:13.428Z,99849.44
2022-07-29T11:20:17.931Z,99842.70
2022-07-29T11:21:23.321Z,99835.90
2022-07-29T11:22:26.732Z,99848.46
2022-07-29T11:23:33.864Z,99849.44
2022-07-29T11:24:35.087Z,99852.23
2022-07-29T11:25:50.729Z,99841.66
2022-07-29T11:26:42.984Z,99846.41
2022-07-29T11:27:47.470Z,99838.98
2022-07-29T11:28:50.749Z,99849.20
2022-07-29T11:29:53.595Z,99841.89
2022-07-29T11:30:56.418Z,99846.41
2022-07-29T11:32:00.559Z,99843.14
2022-07-29T11:33:04.196Z,99845.36
2022-07-29T11:34:07.197Z,99850.70
2022-07-29T11:35:17.836Z,99849.00
2022-07-29T11:36:16.763Z,99853.36
2022-07-29T11:37:20.046Z,99847.09
2022-07-29T11:38:23.993Z,99849.52
2022-07-29T11:40:34.656Z,99856.36
2022-07-29T11:41:39.381Z,99851.08
2022-07-29T11:42:44.577Z,99852.11
2022-07-29T11:43:47.272Z,99847.14
2022-07-29T11:44:51.788Z,99846.70
2022-07-29T11:45:55.377Z,99838.44
2022-07-29T11:46:58.258Z,99840.33
2022-07-29T11:48:28.982Z,99832.25
2022-07-29T11:49:09.185Z,99828.83
2022-07-29T11:50:11.902Z,99835.77
2022-07-29T11:51:15.694Z,99838.95
2022-07-29T11:52:18.977Z,99837.12
2022-07-29T11:53:21.664Z,99823.41
2022-07-29T11:55:32.337Z,99829.70
2022-07-29T11:56:35.175Z,99827.77
2022-07-29T11:57:39.444Z,99843.29
2022-07-29T11:58:43.380Z,99843.58
2022-07-29T11:59:47.178Z,99842.03
2022-07-29T12:00:49.908Z,99845.75
2022-07-29T12:02:02.425Z,99840.45
2022-07-29T12:02:57.876Z,99840.84
2022-07-29T12:04:02.260Z,99835.63
2022-07-29T12:05:10.644Z,99837.00
2022-07-29T12:06:11.346Z,99838.04
2022-07-29T12:07:01.815Z,99852.56
2022-07-29T12:07:15.871Z,99844.02
2022-07-29T12:08:18.684Z,99846.77
2022-07-29T12:09:21.640Z,99846.19
2022-07-29T12:10:30.717Z,99845.22
2022-07-29T12:11:31.720Z,99840.63
2022-07-29T12:12:34.222Z,99849.37
2022-07-29T12:13:37.061Z,99846.05
2022-07-29T12:14:40.925Z,99845.97
2022-07-29T12:15:46.107Z,99842.81
2022-07-29T12:16:48.696Z,99838.77
2022-07-29T12:17:51.599Z,99836.70
2022-07-29T12:18:54.276Z,99839.27
2022-07-29T12:19:56.935Z,99837.84
2022-07-29T12:21:03.609Z,99834.83
2022-07-29T12:22:05.202Z,99835.03
2022-07-29T12:23:08.937Z,99841.57
2022-07-29T12:24:11.871Z,99838.64